KCVG/CVG METAR and TAF weather

Enter ICAO airport designator
Station Type Date Time Source
KCVG METAR 2020/04/06 07:52 UTC NOAA

KCVG 060752Z 09003KT 9SM FEW070 BKN090 09/06 A3010 RMK AO2 SLP191 T00890061


Station Type Date Time Source
KCVG Decoded METAR 2020/04/06 07:52 UTC NOAA

CINCINNATI/NORTHERN KY INTERNATIONAL , KY, United States (KCVG) 39-03N 084-40W 269M
Apr 06, 2020 - 03:52 AM EDT / 2020.04.06 0752 UTC
Wind: from the E (090 degrees) at 3 MPH (3 KT):0
Visibility: 9 mile(s):0
Sky conditions: mostly cloudy
Temperature: 48.0 F (8.9 C)
Dew Point: 43.0 F (6.1 C)
Relative Humidity: 82%
Pressure (altimeter): 30.1 in. Hg (1019 hPa)
ob: KCVG 060752Z 09003KT 9SM FEW070 BKN090 09/06 A3010 RMK AO2 SLP191 T00890061
cycle: 8

Station Type Date Time Source
KCVG TAF 2020/04/06 07:03 UTC NOAA

TAF
AMD KCVG 060700Z 0607/0712 06005KT P6SM FEW012 OVC050
FM061500 22007KT P6SM SCT025 BKN080
FM062100 25007KT P6SM SCT035 BKN090
FM070100 22004KT P6SM FEW035 SCT090
FM071100 21007KT P6SM SCT090

Example: see airport list